Gentry, Missouri
Current Conditions -  °F | °C
As of 11:53 AM on Wednesday 26 Nov 2014 (Local Time) from KLWD Reporting Station
Overcast Overcast  
Wind Chill: 21°   Ceiling: 800
Heat Index: 33°   Visibility: 10mi
Dew Point: 31°   Wind: 22mph
Humidity: 92%   Direction: 320°NW
Pressure: 29.9"   Gusts: 25mph
Location:  40.33°N, 94.42°W
Report Text: KLWD 261753Z AUTO 32019G22KT 10SM OVC008 01/M01 A2990 RMK AO2 CIG 006V010 SLP137 T00061006 10017 21006 53017
Loading
Personal Weather Stations






























Interactive Weather Map New forecast layout! Learn more

10-Day Weather Forecast

Advertisements
Track Severe Weather on mobile